sensor_id;sensor_type;location;lat;lon;timestamp;temperature;humidity
76838;DHT22;65797;47.352;8.164;2023-03-16T00:02:11;0.90;1.00
76838;DHT22;65797;47.352;8.164;2023-03-16T00:04:37;0.90;1.00
76838;DHT22;65797;47.352;8.164;2023-03-16T00:07:09;0.90;1.00
76838;DHT22;65797;47.352;8.164;2023-03-16T00:09:37;0.80;1.00
76838;DHT22;65797;47.352;8.164;2023-03-16T00:12:06;0.80;1.00
76838;DHT22;65797;47.352;8.164;2023-03-16T00:14:34;0.80;1.00
76838;DHT22;65797;47.352;8.164;2023-03-16T00:17:00;0.70;1.00
76838;DHT22;65797;47.352;8.164;2023-03-16T00:19:26;0.60;1.00
76838;DHT22;65797;47.352;8.164;2023-03-16T00:21:52;0.60;1.00
76838;DHT22;65797;47.352;8.164;2023-03-16T00:24:19;0.60;1.00
76838;DHT22;65797;47.352;8.164;2023-03-16T00:26:46;0.60;1.00
76838;DHT22;65797;47.352;8.164;2023-03-16T00:29:12;0.60;1.00
76838;DHT22;65797;47.352;8.164;2023-03-16T00:31:38;0.60;1.00
76838;DHT22;65797;47.352;8.164;2023-03-16T00:34:04;0.70;1.00
76838;DHT22;65797;47.352;8.164;2023-03-16T00:36:30;0.60;1.00
76838;DHT22;65797;47.352;8.164;2023-03-16T00:38:58;0.60;1.00
76838;DHT22;65797;47.352;8.164;2023-03-16T00:41:24;0.60;1.00
76838;DHT22;65797;47.352;8.164;2023-03-16T00:43:53;0.60;1.00
76838;DHT22;65797;47.352;8.164;2023-03-16T00:46:18;0.50;1.00
76838;DHT22;65797;47.352;8.164;2023-03-16T00:48:46;0.50;1.00
76838;DHT22;65797;47.352;8.164;2023-03-16T00:51:14;0.40;1.00
76838;DHT22;65797;47.352;8.164;2023-03-16T00:53:42;0.40;1.00
76838;DHT22;65797;47.352;8.164;2023-03-16T00:56:10;0.40;4.50
76838;DHT22;65797;47.352;8.164;2023-03-16T00:58:37;0.40;1.00
76838;DHT22;65797;47.352;8.164;2023-03-16T01:01:05;0.50;1.00
76838;DHT22;65797;47.352;8.164;2023-03-16T01:03:32;0.40;1.00
76838;DHT22;65797;47.352;8.164;2023-03-16T01:06:01;0.20;1.00
76838;DHT22;65797;47.352;8.164;2023-03-16T01:08:27;0.10;1.00
76838;DHT22;65797;47.352;8.164;2023-03-16T01:10:54;0.10;99.90
76838;DHT22;65797;47.352;8.164;2023-03-16T01:13:21;0.10;99.90
76838;DHT22;65797;47.352;8.164;2023-03-16T01:15:50;0.20;72.60
76838;DHT22;65797;47.352;8.164;2023-03-16T01:18:16;0.20;13.40
76838;DHT22;65797;47.352;8.164;2023-03-16T01:20:41;0.20;14.20
76838;DHT22;65797;47.352;8.164;2023-03-16T01:23:21;0.20;1.00
76838;DHT22;65797;47.352;8.164;2023-03-16T01:25:47;0.20;58.60
76838;DHT22;65797;47.352;8.164;2023-03-16T01:28:22;0.20;1.00
76838;DHT22;65797;47.352;8.164;2023-03-16T01:30:53;0.20;1.00
76838;DHT22;65797;47.352;8.164;2023-03-16T01:33:23;0.10;78.10
76838;DHT22;65797;47.352;8.164;2023-03-16T01:36:00;0.10;72.60
76838;DHT22;65797;47.352;8.164;2023-03-16T01:38:26;0.10;79.20
76838;DHT22;65797;47.352;8.164;2023-03-16T01:40:53;0.10;99.90
76838;DHT22;65797;47.352;8.164;2023-03-16T01:43:25;0.00;99.90
76838;DHT22;65797;47.352;8.164;2023-03-16T01:52:04;0.10;99.90
76838;DHT22;65797;47.352;8.164;2023-03-16T01:57:09;0.00;43.40
76838;DHT22;65797;47.352;8.164;2023-03-16T02:00:12;-0.10;64.40
76838;DHT22;65797;47.352;8.164;2023-03-16T02:03:24;-0.10;99.90
76838;DHT22;65797;47.352;8.164;2023-03-16T02:05:49;-0.10;99.90
76838;DHT22;65797;47.352;8.164;2023-03-16T02:08:17;-0.10;99.90
76838;DHT22;65797;47.352;8.164;2023-03-16T02:10:45;-0.10;99.90
76838;DHT22;65797;47.352;8.164;2023-03-16T02:13:11;-0.10;99.90
76838;DHT22;65797;47.352;8.164;2023-03-16T02:15:37;-0.10;99.90
76838;DHT22;65797;47.352;8.164;2023-03-16T02:18:04;-0.20;99.90
76838;DHT22;65797;47.352;8.164;2023-03-16T02:20:49;-0.20;99.90
76838;DHT22;65797;47.352;8.164;2023-03-16T02:23:18;-0.20;99.90
76838;DHT22;65797;47.352;8.164;2023-03-16T02:26:24;-0.20;99.90
76838;DHT22;65797;47.352;8.164;2023-03-16T02:31:37;-0.30;99.90
76838;DHT22;65797;47.352;8.164;2023-03-16T02:34:03;-0.30;99.90
76838;DHT22;65797;47.352;8.164;2023-03-16T02:36:29;-0.30;99.90
76838;DHT22;65797;47.352;8.164;2023-03-16T02:38:56;-0.30;99.90
76838;DHT22;65797;47.352;8.164;2023-03-16T02:41:22;-0.30;99.90
76838;DHT22;65797;47.352;8.164;2023-03-16T02:43:53;-0.40;99.90
76838;DHT22;65797;47.352;8.164;2023-03-16T02:46:22;-0.40;99.90
76838;DHT22;65797;47.352;8.164;2023-03-16T02:51:24;-0.40;99.90
76838;DHT22;65797;47.352;8.164;2023-03-16T02:53:49;-0.40;99.90
76838;DHT22;65797;47.352;8.164;2023-03-16T02:56:15;-0.40;1.00
76838;DHT22;65797;47.352;8.164;2023-03-16T02:58:41;-0.40;99.90
76838;DHT22;65797;47.352;8.164;2023-03-16T03:01:06;-0.40;99.90
76838;DHT22;65797;47.352;8.164;2023-03-16T03:03:32;-0.50;99.90
76838;DHT22;65797;47.352;8.164;2023-03-16T03:05:59;-0.50;99.90
76838;DHT22;65797;47.352;8.164;2023-03-16T03:08:26;-0.50;99.90
76838;DHT22;65797;47.352;8.164;2023-03-16T03:10:51;-0.60;99.90
76838;DHT22;65797;47.352;8.164;2023-03-16T03:13:17;-0.50;99.90
76838;DHT22;65797;47.352;8.164;2023-03-16T03:15:43;-0.60;99.90
76838;DHT22;65797;47.352;8.164;2023-03-16T03:18:10;-0.60;99.90
76838;DHT22;65797;47.352;8.164;2023-03-16T03:20:35;-0.70;99.90
76838;DHT22;65797;47.352;8.164;2023-03-16T03:23:01;-0.70;1.00
76838;DHT22;65797;47.352;8.164;2023-03-16T03:25:27;-0.60;1.00
76838;DHT22;65797;47.352;8.164;2023-03-16T03:27:53;-0.60;1.00
76838;DHT22;65797;47.352;8.164;2023-03-16T03:30:23;-0.70;1.00
76838;DHT22;65797;47.352;8.164;2023-03-16T03:32:49;-0.70;99.90
76838;DHT22;65797;47.352;8.164;2023-03-16T03:35:16;-0.70;99.90
76838;DHT22;65797;47.352;8.164;2023-03-16T03:37:43;-0.70;99.90
76838;DHT22;65797;47.352;8.164;2023-03-16T03:40:11;-0.80;99.90
76838;DHT22;65797;47.352;8.164;2023-03-16T03:42:38;-0.80;99.90
76838;DHT22;65797;47.352;8.164;2023-03-16T03:45:04;-0.80;99.90
76838;DHT22;65797;47.352;8.164;2023-03-16T03:47:30;-0.80;1.00
76838;DHT22;65797;47.352;8.164;2023-03-16T03:49:56;-0.80;1.00
76838;DHT22;65797;47.352;8.164;2023-03-16T03:52:21;-0.80;99.90
76838;DHT22;65797;47.352;8.164;2023-03-16T03:54:47;-0.80;99.90
76838;DHT22;65797;47.352;8.164;2023-03-16T03:57:13;-0.80;99.90
76838;DHT22;65797;47.352;8.164;2023-03-16T03:59:38;-0.90;99.90
76838;DHT22;65797;47.352;8.164;2023-03-16T04:02:11;-0.90;99.90
76838;DHT22;65797;47.352;8.164;2023-03-16T04:04:38;-0.90;99.90
76838;DHT22;65797;47.352;8.164;2023-03-16T04:07:04;-0.90;99.90
76838;DHT22;65797;47.352;8.164;2023-03-16T04:09:30;-0.90;99.90
76838;DHT22;65797;47.352;8.164;2023-03-16T04:11:59;-0.90;99.90
76838;DHT22;65797;47.352;8.164;2023-03-16T04:14:25;-0.90;99.90
76838;DHT22;65797;47.352;8.164;2023-03-16T04:16:51;-0.90;99.90
76838;DHT22;65797;47.352;8.164;2023-03-16T04:19:22;-0.90;99.90
76838;DHT22;65797;47.352;8.164;2023-03-16T04:21:49;-0.90;99.90
76838;DHT22;65797;47.352;8.164;2023-03-16T04:24:15;-1.00;72.70
76838;DHT22;65797;47.352;8.164;2023-03-16T04:26:43;-1.00;99.90
76838;DHT22;65797;47.352;8.164;2023-03-16T04:29:13;-1.00;99.90
76838;DHT22;65797;47.352;8.164;2023-03-16T04:31:39;-1.00;99.90
76838;DHT22;65797;47.352;8.164;2023-03-16T04:34:06;-1.10;99.90
76838;DHT22;65797;47.352;8.164;2023-03-16T04:36:33;-1.10;99.90
76838;DHT22;65797;47.352;8.164;2023-03-16T04:38:58;-1.00;99.90
76838;DHT22;65797;47.352;8.164;2023-03-16T04:41:24;-1.10;99.90
76838;DHT22;65797;47.352;8.164;2023-03-16T04:43:50;-1.00;99.90
76838;DHT22;65797;47.352;8.164;2023-03-16T04:46:16;-1.10;99.90
76838;DHT22;65797;47.352;8.164;2023-03-16T04:48:42;-1.00;99.90
76838;DHT22;65797;47.352;8.164;2023-03-16T04:51:08;-1.00;99.90
76838;DHT22;65797;47.352;8.164;2023-03-16T04:53:34;-1.10;99.90
76838;DHT22;65797;47.352;8.164;2023-03-16T04:55:59;-1.00;99.90
76838;DHT22;65797;47.352;8.164;2023-03-16T04:58:25;-1.00;99.90
76838;DHT22;65797;47.352;8.164;2023-03-16T05:00:52;-1.00;99.90
76838;DHT22;65797;47.352;8.164;2023-03-16T05:03:18;-1.00;99.90
76838;DHT22;65797;47.352;8.164;2023-03-16T05:05:45;-1.10;99.90
76838;DHT22;65797;47.352;8.164;2023-03-16T05:08:12;-1.10;99.90
76838;DHT22;65797;47.352;8.164;2023-03-16T05:10:38;-1.20;99.90
76838;DHT22;65797;47.352;8.164;2023-03-16T05:13:04;-1.20;1.00
76838;DHT22;65797;47.352;8.164;2023-03-16T05:15:30;-1.20;1.00
76838;DHT22;65797;47.352;8.164;2023-03-16T05:17:56;-1.20;1.00
76838;DHT22;65797;47.352;8.164;2023-03-16T05:20:22;-1.10;1.00
76838;DHT22;65797;47.352;8.164;2023-03-16T05:22:48;-1.10;99.90
76838;DHT22;65797;47.352;8.164;2023-03-16T05:25:16;-1.20;99.90
76838;DHT22;65797;47.352;8.164;2023-03-16T05:27:47;-1.10;1.00
76838;DHT22;65797;47.352;8.164;2023-03-16T05:30:14;-1.20;1.00
76838;DHT22;65797;47.352;8.164;2023-03-16T05:32:43;-1.20;1.00
76838;DHT22;65797;47.352;8.164;2023-03-16T05:35:10;-1.20;1.00
76838;DHT22;65797;47.352;8.164;2023-03-16T05:37:39;-1.20;1.00
76838;DHT22;65797;47.352;8.164;2023-03-16T05:40:06;-1.20;1.00
76838;DHT22;65797;47.352;8.164;2023-03-16T05:42:42;-1.20;1.00
76838;DHT22;65797;47.352;8.164;2023-03-16T05:45:08;-1.20;1.00
76838;DHT22;65797;47.352;8.164;2023-03-16T05:47:34;-1.20;1.00
76838;DHT22;65797;47.352;8.164;2023-03-16T05:50:02;-1.20;1.00
76838;DHT22;65797;47.352;8.164;2023-03-16T05:52:28;-1.20;1.00
76838;DHT22;65797;47.352;8.164;2023-03-16T05:54:53;-1.30;1.00
76838;DHT22;65797;47.352;8.164;2023-03-16T05:57:19;-1.20;1.00
76838;DHT22;65797;47.352;8.164;2023-03-16T05:59:45;-1.20;1.00
76838;DHT22;65797;47.352;8.164;2023-03-16T06:02:10;-1.20;1.00
76838;DHT22;65797;47.352;8.164;2023-03-16T06:04:36;-1.20;1.00
76838;DHT22;65797;47.352;8.164;2023-03-16T06:07:02;-1.30;1.00
76838;DHT22;65797;47.352;8.164;2023-03-16T06:09:27;-1.30;1.00
76838;DHT22;65797;47.352;8.164;2023-03-16T06:11:53;-1.20;99.90
76838;DHT22;65797;47.352;8.164;2023-03-16T06:14:19;-1.10;99.90
76838;DHT22;65797;47.352;8.164;2023-03-16T06:16:44;-1.10;64.40
76838;DHT22;65797;47.352;8.164;2023-03-16T06:19:10;-1.00;79.70
76838;DHT22;65797;47.352;8.164;2023-03-16T06:21:36;-0.90;99.90
76838;DHT22;65797;47.352;8.164;2023-03-16T06:24:02;-0.80;80.90
76838;DHT22;65797;47.352;8.164;2023-03-16T06:26:27;-0.60;99.90
76838;DHT22;65797;47.352;8.164;2023-03-16T06:28:53;-0.30;1.00
76838;DHT22;65797;47.352;8.164;2023-03-16T06:31:19;-0.10;99.90
76838;DHT22;65797;47.352;8.164;2023-03-16T06:33:45;0.10;99.90
76838;DHT22;65797;47.352;8.164;2023-03-16T06:36:11;0.30;23.20
76838;DHT22;65797;47.352;8.164;2023-03-16T06:38:37;0.60;99.90
76838;DHT22;65797;47.352;8.164;2023-03-16T06:41:03;0.80;1.00
76838;DHT22;65797;47.352;8.164;2023-03-16T06:43:29;0.90;99.90
76838;DHT22;65797;47.352;8.164;2023-03-16T06:45:58;1.10;99.90
76838;DHT22;65797;47.352;8.164;2023-03-16T06:48:24;1.40;99.90
76838;DHT22;65797;47.352;8.164;2023-03-16T06:50:50;1.50;1.00
76838;DHT22;65797;47.352;8.164;2023-03-16T06:53:17;1.70;1.00
76838;DHT22;65797;47.352;8.164;2023-03-16T06:55:42;2.00;1.00
76838;DHT22;65797;47.352;8.164;2023-03-16T06:58:08;2.10;1.00
76838;DHT22;65797;47.352;8.164;2023-03-16T07:00:34;2.30;1.00
76838;DHT22;65797;47.352;8.164;2023-03-16T07:03:00;2.60;1.00
76838;DHT22;65797;47.352;8.164;2023-03-16T07:05:27;3.00;1.00
76838;DHT22;65797;47.352;8.164;2023-03-16T07:07:53;3.20;1.00
76838;DHT22;65797;47.352;8.164;2023-03-16T07:10:19;3.30;1.00
76838;DHT22;65797;47.352;8.164;2023-03-16T07:12:45;3.50;1.00
76838;DHT22;65797;47.352;8.164;2023-03-16T07:15:12;3.90;1.00
76838;DHT22;65797;47.352;8.164;2023-03-16T07:17:38;4.10;99.90
76838;DHT22;65797;47.352;8.164;2023-03-16T07:20:05;4.30;99.90
76838;DHT22;65797;47.352;8.164;2023-03-16T07:22:34;4.70;99.90
76838;DHT22;65797;47.352;8.164;2023-03-16T07:25:00;5.00;99.90
76838;DHT22;65797;47.352;8.164;2023-03-16T07:27:26;5.10;99.90
76838;DHT22;65797;47.352;8.164;2023-03-16T07:29:53;5.40;99.90
76838;DHT22;65797;47.352;8.164;2023-03-16T07:32:19;5.70;99.90
76838;DHT22;65797;47.352;8.164;2023-03-16T07:34:45;5.50;99.90
76838;DHT22;65797;47.352;8.164;2023-03-16T07:37:10;5.70;99.90
76838;DHT22;65797;47.352;8.164;2023-03-16T07:39:37;5.80;99.90
76838;DHT22;65797;47.352;8.164;2023-03-16T07:42:03;5.90;99.90
76838;DHT22;65797;47.352;8.164;2023-03-16T07:44:29;6.30;99.90
76838;DHT22;65797;47.352;8.164;2023-03-16T07:46:58;6.40;99.90
76838;DHT22;65797;47.352;8.164;2023-03-16T07:49:24;6.70;99.90
76838;DHT22;65797;47.352;8.164;2023-03-16T07:51:50;6.90;99.90
76838;DHT22;65797;47.352;8.164;2023-03-16T07:54:16;7.00;99.90
76838;DHT22;65797;47.352;8.164;2023-03-16T07:56:41;6.20;99.90
76838;DHT22;65797;47.352;8.164;2023-03-16T07:59:07;6.60;99.90
76838;DHT22;65797;47.352;8.164;2023-03-16T08:01:33;6.90;99.90
76838;DHT22;65797;47.352;8.164;2023-03-16T08:04:00;7.10;99.90
76838;DHT22;65797;47.352;8.164;2023-03-16T08:06:27;7.70;99.90
76838;DHT22;65797;47.352;8.164;2023-03-16T08:08:53;7.60;99.90
76838;DHT22;65797;47.352;8.164;2023-03-16T08:11:19;7.80;99.90
76838;DHT22;65797;47.352;8.164;2023-03-16T08:13:51;8.20;99.90
76838;DHT22;65797;47.352;8.164;2023-03-16T08:16:24;8.70;99.90
76838;DHT22;65797;47.352;8.164;2023-03-16T08:39:32;8.50;99.90
76838;DHT22;65797;47.352;8.164;2023-03-16T08:41:58;8.90;99.90
76838;DHT22;65797;47.352;8.164;2023-03-16T08:44:23;8.80;99.90
76838;DHT22;65797;47.352;8.164;2023-03-16T08:46:50;8.60;99.90
76838;DHT22;65797;47.352;8.164;2023-03-16T08:49:17;9.00;99.90
76838;DHT22;65797;47.352;8.164;2023-03-16T08:51:47;9.40;99.90
76838;DHT22;65797;47.352;8.164;2023-03-16T08:54:13;9.70;99.90
76838;DHT22;65797;47.352;8.164;2023-03-16T08:56:40;10.10;99.90
76838;DHT22;65797;47.352;8.164;2023-03-16T08:59:06;10.00;99.90
76838;DHT22;65797;47.352;8.164;2023-03-16T09:01:31;10.00;99.90
76838;DHT22;65797;47.352;8.164;2023-03-16T09:03:58;10.10;99.90
76838;DHT22;65797;47.352;8.164;2023-03-16T09:06:25;10.10;99.90
76838;DHT22;65797;47.352;8.164;2023-03-16T09:08:51;10.20;99.90
76838;DHT22;65797;47.352;8.164;2023-03-16T09:11:18;9.40;99.90
76838;DHT22;65797;47.352;8.164;2023-03-16T09:13:45;10.10;99.90
76838;DHT22;65797;47.352;8.164;2023-03-16T09:16:13;10.30;99.90
76838;DHT22;65797;47.352;8.164;2023-03-16T09:18:40;10.60;99.90
76838;DHT22;65797;47.352;8.164;2023-03-16T09:21:08;10.70;99.90
76838;DHT22;65797;47.352;8.164;2023-03-16T09:23:35;11.10;99.90
76838;DHT22;65797;47.352;8.164;2023-03-16T09:26:05;11.30;99.90
76838;DHT22;65797;47.352;8.164;2023-03-16T09:28:33;10.00;99.90
76838;DHT22;65797;47.352;8.164;2023-03-16T09:31:00;10.50;99.90
76838;DHT22;65797;47.352;8.164;2023-03-16T09:33:28;11.00;99.90
76838;DHT22;65797;47.352;8.164;2023-03-16T09:35:55;9.80;99.90
76838;DHT22;65797;47.352;8.164;2023-03-16T09:38:22;10.30;99.90
76838;DHT22;65797;47.352;8.164;2023-03-16T09:41:44;10.40;99.90
76838;DHT22;65797;47.352;8.164;2023-03-16T09:46:30;10.80;99.90
76838;DHT22;65797;47.352;8.164;2023-03-16T09:48:57;10.90;99.90
76838;DHT22;65797;47.352;8.164;2023-03-16T09:54:00;11.50;99.90
76838;DHT22;65797;47.352;8.164;2023-03-16T09:56:36;11.90;99.90
76838;DHT22;65797;47.352;8.164;2023-03-16T09:59:13;11.90;99.90
76838;DHT22;65797;47.352;8.164;2023-03-16T10:02:18;12.30;99.90
76838;DHT22;65797;47.352;8.164;2023-03-16T10:05:11;11.60;99.90
76838;DHT22;65797;47.352;8.164;2023-03-16T10:12:44;10.50;99.90
76838;DHT22;65797;47.352;8.164;2023-03-16T10:15:20;10.70;99.90
76838;DHT22;65797;47.352;8.164;2023-03-16T10:17:59;11.70;99.90
76838;DHT22;65797;47.352;8.164;2023-03-16T10:20:31;12.50;99.90
76838;DHT22;65797;47.352;8.164;2023-03-16T10:22:58;12.80;99.90
76838;DHT22;65797;47.352;8.164;2023-03-16T10:25:54;13.20;99.90
76838;DHT22;65797;47.352;8.164;2023-03-16T10:28:23;13.20;99.90
76838;DHT22;65797;47.352;8.164;2023-03-16T10:30:54;13.10;99.90
76838;DHT22;65797;47.352;8.164;2023-03-16T10:33:31;12.70;99.90
76838;DHT22;65797;47.352;8.164;2023-03-16T10:41:29;13.20;99.90
76838;DHT22;65797;47.352;8.164;2023-03-16T10:44:01;12.90;99.90
76838;DHT22;65797;47.352;8.164;2023-03-16T10:47:04;13.30;99.90
76838;DHT22;65797;47.352;8.164;2023-03-16T10:49:42;13.50;99.90
76838;DHT22;65797;47.352;8.164;2023-03-16T10:54:56;12.50;99.90
76838;DHT22;65797;47.352;8.164;2023-03-16T11:00:20;12.30;99.90
76838;DHT22;65797;47.352;8.164;2023-03-16T11:02:49;12.00;99.90
76838;DHT22;65797;47.352;8.164;2023-03-16T11:07:49;12.70;99.90
76838;DHT22;65797;47.352;8.164;2023-03-16T11:10:28;12.00;99.90
76838;DHT22;65797;47.352;8.164;2023-03-16T11:13:00;12.90;99.90
76838;DHT22;65797;47.352;8.164;2023-03-16T11:15:34;13.10;99.90
76838;DHT22;65797;47.352;8.164;2023-03-16T11:18:01;12.40;99.90
76838;DHT22;65797;47.352;8.164;2023-03-16T11:20:29;12.30;99.90
76838;DHT22;65797;47.352;8.164;2023-03-16T11:22:57;12.50;99.90
76838;DHT22;65797;47.352;8.164;2023-03-16T11:25:42;12.30;99.90
76838;DHT22;65797;47.352;8.164;2023-03-16T11:28:21;12.30;99.90
76838;DHT22;65797;47.352;8.164;2023-03-16T11:33:41;13.50;99.90
76838;DHT22;65797;47.352;8.164;2023-03-16T17:13:39;11.70;99.90
76838;DHT22;65797;47.352;8.164;2023-03-16T17:16:07;11.70;99.90
76838;DHT22;65797;47.352;8.164;2023-03-16T17:18:34;11.70;99.90
76838;DHT22;65797;47.352;8.164;2023-03-16T17:21:00;11.60;99.90
76838;DHT22;65797;47.352;8.164;2023-03-16T17:25:55;11.40;99.90
76838;DHT22;65797;47.352;8.164;2023-03-16T17:28:23;11.30;99.90
76838;DHT22;65797;47.352;8.164;2023-03-16T17:30:51;11.20;99.90
76838;DHT22;65797;47.352;8.164;2023-03-16T17:33:17;11.20;99.90
76838;DHT22;65797;47.352;8.164;2023-03-16T17:35:45;11.10;99.90
76838;DHT22;65797;47.352;8.164;2023-03-16T17:38:23;11.00;99.90
76838;DHT22;65797;47.352;8.164;2023-03-16T17:40:50;10.90;99.90
76838;DHT22;65797;47.352;8.164;2023-03-16T17:43:22;10.90;99.90
76838;DHT22;65797;47.352;8.164;2023-03-16T17:45:49;10.70;99.90
76838;DHT22;65797;47.352;8.164;2023-03-16T17:48:22;10.70;99.90
76838;DHT22;65797;47.352;8.164;2023-03-16T17:50:49;10.60;99.90
76838;DHT22;65797;47.352;8.164;2023-03-16T17:53:18;10.50;99.90
76838;DHT22;65797;47.352;8.164;2023-03-16T17:55:44;10.40;99.90
76838;DHT22;65797;47.352;8.164;2023-03-16T17:58:26;10.30;99.90
76838;DHT22;65797;47.352;8.164;2023-03-16T18:00:54;10.10;99.90
76838;DHT22;65797;47.352;8.164;2023-03-16T18:03:23;10.10;99.90
76838;DHT22;65797;47.352;8.164;2023-03-16T18:08:29;9.80;99.90
76838;DHT22;65797;47.352;8.164;2023-03-16T18:11:06;9.70;99.90
76838;DHT22;65797;47.352;8.164;2023-03-16T18:42:05;8.60;99.90
76838;DHT22;65797;47.352;8.164;2023-03-16T18:44:39;8.50;99.90
76838;DHT22;65797;47.352;8.164;2023-03-16T18:47:18;8.40;99.90
76838;DHT22;65797;47.352;8.164;2023-03-16T18:49:45;8.30;99.90
76838;DHT22;65797;47.352;8.164;2023-03-16T18:52:19;8.30;99.90
76838;DHT22;65797;47.352;8.164;2023-03-16T18:54:45;8.20;99.90
76838;DHT22;65797;47.352;8.164;2023-03-16T18:57:21;8.10;99.90
76838;DHT22;65797;47.352;8.164;2023-03-16T18:59:48;7.90;99.90
76838;DHT22;65797;47.352;8.164;2023-03-16T19:02:35;7.90;99.90
76838;DHT22;65797;47.352;8.164;2023-03-16T19:05:06;7.80;99.90
76838;DHT22;65797;47.352;8.164;2023-03-16T19:07:43;7.70;99.90
76838;DHT22;65797;47.352;8.164;2023-03-16T19:12:45;7.40;99.90
76838;DHT22;65797;47.352;8.164;2023-03-16T19:15:24;7.40;99.90
76838;DHT22;65797;47.352;8.164;2023-03-16T19:17:50;7.30;99.90
76838;DHT22;65797;47.352;8.164;2023-03-16T19:20:19;7.20;99.90
76838;DHT22;65797;47.352;8.164;2023-03-16T19:22:46;7.20;99.90
76838;DHT22;65797;47.352;8.164;2023-03-16T19:25:26;7.10;99.90
76838;DHT22;65797;47.352;8.164;2023-03-16T19:27:53;6.90;99.90
76838;DHT22;65797;47.352;8.164;2023-03-16T19:30:25;6.80;99.90
76838;DHT22;65797;47.352;8.164;2023-03-16T19:32:52;6.70;99.90
76838;DHT22;65797;47.352;8.164;2023-03-16T19:35:19;6.70;99.90
76838;DHT22;65797;47.352;8.164;2023-03-16T19:37:46;6.70;99.90
76838;DHT22;65797;47.352;8.164;2023-03-16T19:40:13;6.70;99.90
76838;DHT22;65797;47.352;8.164;2023-03-16T19:42:39;6.60;99.90
76838;DHT22;65797;47.352;8.164;2023-03-16T19:45:14;6.50;99.90
76838;DHT22;65797;47.352;8.164;2023-03-16T19:47:42;6.50;99.90
76838;DHT22;65797;47.352;8.164;2023-03-16T19:50:21;6.40;99.90
76838;DHT22;65797;47.352;8.164;2023-03-16T19:52:48;6.40;99.90
76838;DHT22;65797;47.352;8.164;2023-03-16T19:55:16;6.30;99.90
76838;DHT22;65797;47.352;8.164;2023-03-16T19:57:43;6.30;99.90
76838;DHT22;65797;47.352;8.164;2023-03-16T20:00:16;6.30;99.90
76838;DHT22;65797;47.352;8.164;2023-03-16T20:02:43;6.20;99.90
76838;DHT22;65797;47.352;8.164;2023-03-16T20:05:19;6.20;99.90
76838;DHT22;65797;47.352;8.164;2023-03-16T20:07:45;6.20;99.90
76838;DHT22;65797;47.352;8.164;2023-03-16T20:10:17;6.10;99.90
76838;DHT22;65797;47.352;8.164;2023-03-16T20:12:43;6.00;99.90
76838;DHT22;65797;47.352;8.164;2023-03-16T20:15:17;5.80;99.90
76838;DHT22;65797;47.352;8.164;2023-03-16T20:17:45;5.60;99.90
76838;DHT22;65797;47.352;8.164;2023-03-16T20:20:22;5.60;99.90
76838;DHT22;65797;47.352;8.164;2023-03-16T20:22:48;5.60;99.90
76838;DHT22;65797;47.352;8.164;2023-03-16T20:25:15;5.60;99.90
76838;DHT22;65797;47.352;8.164;2023-03-16T20:27:42;5.50;99.90
76838;DHT22;65797;47.352;8.164;2023-03-16T20:30:16;5.50;99.90
76838;DHT22;65797;47.352;8.164;2023-03-16T20:32:43;5.50;99.90
76838;DHT22;65797;47.352;8.164;2023-03-16T20:35:28;5.40;99.90
76838;DHT22;65797;47.352;8.164;2023-03-16T20:37:56;5.40;99.90
76838;DHT22;65797;47.352;8.164;2023-03-16T20:40:22;5.30;99.90
76838;DHT22;65797;47.352;8.164;2023-03-16T20:42:49;5.20;99.90
76838;DHT22;65797;47.352;8.164;2023-03-16T20:45:23;5.20;1.00
76838;DHT22;65797;47.352;8.164;2023-03-16T20:47:50;5.10;99.90
76838;DHT22;65797;47.352;8.164;2023-03-16T20:50:25;5.00;99.90
76838;DHT22;65797;47.352;8.164;2023-03-16T20:52:51;5.00;99.90
76838;DHT22;65797;47.352;8.164;2023-03-16T20:55:20;4.90;99.90
76838;DHT22;65797;47.352;8.164;2023-03-16T20:57:46;4.80;99.90
76838;DHT22;65797;47.352;8.164;2023-03-16T21:00:36;4.80;99.90
76838;DHT22;65797;47.352;8.164;2023-03-16T21:03:21;4.80;99.90
76838;DHT22;65797;47.352;8.164;2023-03-16T21:05:52;4.70;99.90
76838;DHT22;65797;47.352;8.164;2023-03-16T21:08:19;4.70;99.90
76838;DHT22;65797;47.352;8.164;2023-03-16T21:10:47;4.70;99.90
76838;DHT22;65797;47.352;8.164;2023-03-16T21:13:19;4.60;99.90
76838;DHT22;65797;47.352;8.164;2023-03-16T21:15:46;4.50;1.00
76838;DHT22;65797;47.352;8.164;2023-03-16T21:18:17;4.40;1.00
76838;DHT22;65797;47.352;8.164;2023-03-16T21:20:44;4.40;1.00
76838;DHT22;65797;47.352;8.164;2023-03-16T21:23:13;4.40;99.90
76838;DHT22;65797;47.352;8.164;2023-03-16T21:25:51;4.40;99.90
76838;DHT22;65797;47.352;8.164;2023-03-16T21:28:18;4.40;99.90
76838;DHT22;65797;47.352;8.164;2023-03-16T21:30:51;4.40;99.90
76838;DHT22;65797;47.352;8.164;2023-03-16T21:36:20;4.20;1.00
76838;DHT22;65797;47.352;8.164;2023-03-16T21:38:47;4.20;1.00
76838;DHT22;65797;47.352;8.164;2023-03-16T21:41:14;4.20;1.00
76838;DHT22;65797;47.352;8.164;2023-03-16T21:43:41;4.10;1.00
76838;DHT22;65797;47.352;8.164;2023-03-16T21:46:21;4.10;1.00
76838;DHT22;65797;47.352;8.164;2023-03-16T21:48:51;4.00;1.00
76838;DHT22;65797;47.352;8.164;2023-03-16T21:51:19;3.90;1.00
76838;DHT22;65797;47.352;8.164;2023-03-16T21:53:47;3.90;1.00
76838;DHT22;65797;47.352;8.164;2023-03-16T21:56:15;3.90;1.00
76838;DHT22;65797;47.352;8.164;2023-03-16T21:58:42;3.90;1.00
76838;DHT22;65797;47.352;8.164;2023-03-16T22:01:31;3.80;1.00
76838;DHT22;65797;47.352;8.164;2023-03-16T22:04:09;3.80;1.00
76838;DHT22;65797;47.352;8.164;2023-03-16T22:06:36;3.80;1.00
76838;DHT22;65797;47.352;8.164;2023-03-16T22:09:02;3.70;1.00
76838;DHT22;65797;47.352;8.164;2023-03-16T22:11:29;3.70;1.00
76838;DHT22;65797;47.352;8.164;2023-03-16T22:13:56;3.70;1.00
76838;DHT22;65797;47.352;8.164;2023-03-16T22:16:27;3.60;1.00
76838;DHT22;65797;47.352;8.164;2023-03-16T22:18:55;3.60;1.00
76838;DHT22;65797;47.352;8.164;2023-03-16T22:21:41;3.50;1.00
76838;DHT22;65797;47.352;8.164;2023-03-16T22:24:18;3.50;1.00
76838;DHT22;65797;47.352;8.164;2023-03-16T22:26:45;3.50;1.00
76838;DHT22;65797;47.352;8.164;2023-03-16T22:31:41;3.40;1.00
76838;DHT22;65797;47.352;8.164;2023-03-16T22:34:23;3.40;1.00
76838;DHT22;65797;47.352;8.164;2023-03-16T22:36:49;3.40;1.00
76838;DHT22;65797;47.352;8.164;2023-03-16T22:39:15;3.30;1.00
76838;DHT22;65797;47.352;8.164;2023-03-16T22:41:41;3.30;1.00
76838;DHT22;65797;47.352;8.164;2023-03-16T22:44:15;3.30;1.00
76838;DHT22;65797;47.352;8.164;2023-03-16T22:46:42;3.20;1.00
76838;DHT22;65797;47.352;8.164;2023-03-16T22:49:20;3.20;1.00
76838;DHT22;65797;47.352;8.164;2023-03-16T22:51:47;3.20;1.00
76838;DHT22;65797;47.352;8.164;2023-03-16T22:54:15;3.10;1.00
76838;DHT22;65797;47.352;8.164;2023-03-16T22:56:44;3.10;1.00
76838;DHT22;65797;47.352;8.164;2023-03-16T22:59:13;3.10;1.00
76838;DHT22;65797;47.352;8.164;2023-03-16T23:01:45;3.10;1.00
76838;DHT22;65797;47.352;8.164;2023-03-16T23:04:21;3.10;1.00
76838;DHT22;65797;47.352;8.164;2023-03-16T23:06:50;3.10;1.00
76838;DHT22;65797;47.352;8.164;2023-03-16T23:09:16;3.10;1.00
76838;DHT22;65797;47.352;8.164;2023-03-16T23:11:43;3.00;1.00
76838;DHT22;65797;47.352;8.164;2023-03-16T23:14:18;2.90;1.00
76838;DHT22;65797;47.352;8.164;2023-03-16T23:16:47;2.90;1.00